KPOC/POC METAR and TAF weather

Enter ICAO airport designator
Station Type Date Time Source
KPOC METAR 2019/06/17 03:47 UTC NOAA

KPOC 170347Z 24008KT 10SM OVC019 18/14 A2988


Station Type Date Time Source
KPOC Decoded METAR 2019/06/17 03:47 UTC NOAA

La Verne / Brackett, CA, United States (KPOC) 34-06N 117-47W
Jun 16, 2019 - 11:47 PM EDT / 2019.06.17 0347 UTC
Wind: from the WSW (240 degrees) at 9 MPH (8 KT):0
Visibility: 10 mile(s):0
Sky conditions: overcast
Temperature: 64 F (18 C)
Dew Point: 57 F (14 C)
Relative Humidity: 77%
Pressure (altimeter): 29.88 in. Hg (1011 hPa)
ob: KPOC 170347Z 24008KT 10SM OVC019 18/14 A2988
cycle: 4

Station Type Date Time Source
KPOC TAF UTC NOAA

Error!

Example: see airport list